WA6MHA-15 Weather Reports


Display with metric or nautical units.
time (UTC)temp
F
wind
direction
speed
MPH
gust
MPH
rain 1hr
in
rain 24hr
in
rain mn
in
humidity
%
barometer
mb
20171022120219 61 70 1.0 1.0 0.00 0.00 0.00 48
20171022115817 61 63 1.0 0.0 0.00 0.00 0.00 47
20171022115554 62 84 0.0 0.0 0.00 0.00 0.00 47
20171022115137 62 84 0.0 0.0 0.00 0.00 0.00 47
20171022115013 62 84 0.0 0.0 0.00 0.00 0.00 47
20171022113615 63 98 1.0 3.0 0.00 0.00 0.00 49
20171022113545 63 98 1.0 3.0 0.00 0.00 0.00 49
20171022113513 63 98 1.0 3.0 0.00 0.00 0.00 49
20171022113442 63 98 1.0 3.0 0.00 0.00 0.00 49
20171022113410 63 98 1.0 3.0 0.00 0.00 0.00 49
20171022113339 63 98 1.0 3.0 0.00 0.00 0.00 49
20171022113307 63 98 1.0 3.0 0.00 0.00 0.00 49
20171022113235 63 98 1.0 3.0 0.00 0.00 0.00 49
20171022113203 63 98 1.0 3.0 0.00 0.00 0.00 49
20171022113128 63 98 1.0 3.0 0.00 0.00 0.00 49
20171022113056 63 98 1.0 3.0 0.00 0.00 0.00 49
20171022113020 64 94 0.0 1.0 0.00 0.00 0.00 47
20171022112943 63 98 1.0 3.0 0.00 0.00 0.00 49
20171022112909 64 94 0.0 1.0 0.00 0.00 0.00 47
20171022112803 64 94 0.0 1.0 0.00 0.00 0.00 47
20171022112729 64 94 0.0 1.0 0.00 0.00 0.00 47
20171022112653 64 94 0.0 1.0 0.00 0.00 0.00 47
20171022112611 64 94 0.0 1.0 0.00 0.00 0.00 47
20171022112602 62 84 0.0 0.0 0.00 0.00 0.00 49
20171022112530 63 98 1.0 3.0 0.00 0.00 0.00 49
20171022112459 63 98 1.0 3.0 0.00 0.00 0.00 49
20171022112427 63 98 1.0 3.0 0.00 0.00 0.00 49
20171022112353 64 94 0.0 1.0 0.00 0.00 0.00 47
20171022112319 64 94 0.0 1.0 0.00 0.00 0.00 47
20171022112245 63 98 1.0 3.0 0.00 0.00 0.00 49
20171022112209 63 98 1.0 3.0 0.00 0.00 0.00 49
20171022112130 63 98 1.0 3.0 0.00 0.00 0.00 49
20171022112049 63 98 1.0 3.0 0.00 0.00 0.00 49
20171022112006 64 94 0.0 1.0 0.00 0.00 0.00 47
20171022111922 64 94 0.0 1.0 0.00 0.00 0.00 47
20171022111835 63 98 1.0 3.0 0.00 0.00 0.00 49
20171022111747 64 94 0.0 1.0 0.00 0.00 0.00 47
20171022111656 64 94 0.0 1.0 0.00 0.00 0.00 47
20171022111604 64 94 0.0 1.0 0.00 0.00 0.00 47
20171022111510 64 94 0.0 1.0 0.00 0.00 0.00 47
20171022111414 63 98 1.0 3.0 0.00 0.00 0.00 49
20171022111317 64 94 0.0 1.0 0.00 0.00 0.00 47
20171022111217 64 94 0.0 1.0 0.00 0.00 0.00 47
20171022111145 64 94 0.0 1.0 0.00 0.00 0.00 47
20171022111114 63 98 1.0 3.0 0.00 0.00 0.00 49
20171022111040 63 98 1.0 3.0 0.00 0.00 0.00 49
20171022111007 64 94 0.0 1.0 0.00 0.00 0.00 47
20171022110931 64 94 0.0 1.0 0.00 0.00 0.00 47
20171022110858 63 98 1.0 3.0 0.00 0.00 0.00 49
20171022110818 63 98 1.0 3.0 0.00 0.00 0.00 49
20171022110742 64 94 0.0 1.0 0.00 0.00 0.00 47
20171022110705 63 98 1.0 3.0 0.00 0.00 0.00 49
20171022110627 64 94 0.0 1.0 0.00 0.00 0.00 47
20171022110555 62 71 1.0 3.0 0.00 0.00 0.00 49
20171022110549 63 98 1.0 3.0 0.00 0.00 0.00 49
20171022110511 64 94 0.0 1.0 0.00 0.00 0.00 47
20171022110431 63 98 1.0 3.0 0.00 0.00 0.00 49
20171022110350 64 94 0.0 1.0 0.00 0.00 0.00 47
20171022110308 64 94 0.0 1.0 0.00 0.00 0.00 47
20171022110224 64 94 0.0 1.0 0.00 0.00 0.00 47
20171022110151 62 99 2.0 2.0 0.00 0.00 0.00 50
20171022110140 64 94 0.0 1.0 0.00 0.00 0.00 47
20171022110055 63 98 1.0 3.0 0.00 0.00 0.00 49
20171022110009 64 94 0.0 1.0 0.00 0.00 0.00 47
20171022105920 63 98 1.0 3.0 0.00 0.00 0.00 49
20171022105832 63 98 1.0 3.0 0.00 0.00 0.00 49
20171022105751 63 35 0.0 3.0 0.00 0.00 0.00 48
20171022105743 63 98 1.0 3.0 0.00 0.00 0.00 49
20171022105653 63 98 1.0 3.0 0.00 0.00 0.00 49
20171022105602 63 98 1.0 3.0 0.00 0.00 0.00 49
20171022105509 64 94 0.0 1.0 0.00 0.00 0.00 47
20171022105416 64 94 0.0 1.0 0.00 0.00 0.00 47
20171022105348 63 98 1.0 3.0 0.00 0.00 0.00 49
20171022105323 64 94 0.0 1.0 0.00 0.00 0.00 47
20171022105228 64 94 0.0 1.0 0.00 0.00 0.00 47
20171022105132 64 94 0.0 1.0 0.00 0.00 0.00 47
20171022104947 64 94 0.0 1.0 0.00 0.00 0.00 47
20171022102938 65 8 2.0 6.0 0.00 0.00 0.00 41
20171022100929 62 32 0.0 0.0 0.00 0.00 0.00 50
20171022100527 62 32 0.0 0.0 0.00 0.00 0.00 49
20171022095723 64 32 0.0 0.0 0.00 0.00 0.00 48
20171022095322 64 32 0.0 0.0 0.00 0.00 0.00 46
20171022094920 64 32 0.0 2.0 0.00 0.00 0.00 46
20171022092911 64 22 1.0 4.0 0.00 0.00 0.00 47
20171022090902 62 59 0.0 0.0 0.00 0.00 0.00 45
20171022090500 62 59 0.0 0.0 0.00 0.00 0.00 44
20171022085657 62 59 0.0 0.0 0.00 0.00 0.00 44
20171022084451 62 59 0.0 3.0 0.00 0.00 0.00 44
20171022083245 62 80 0.0 0.0 0.00 0.00 0.00 45
20171022082844 62 80 0.0 0.0 0.00 0.00 0.00 45
20171022082443 62 80 0.0 1.0 0.00 0.00 0.00 44
20171022081954 61 77 0.0 3.0 0.00 0.00 0.00 45
20171022081237 62 88 3.0 0.0 0.00 0.00 0.00 44
20171022080836 61 77 0.0 0.0 0.00 0.00 0.00 44
20171022080433 61 77 0.0 0.0 0.00 0.00 0.00 45
20171022080325 62 77 0.0 0.0 0.00 0.00 0.00 45
20171022080246 62 77 0.0 0.0 0.00 0.00 0.00 45
20171022080032 62 77 0.0 0.0 0.00 0.00 0.00 45
20171022075228 61 77 0.0 3.0 0.00 0.00 0.00 45
20171022074826 61 77 0.0 3.0 0.00 0.00 0.00 46
20171022074022 62 94 0.0 0.0 0.00 0.00 0.00 45
20171022073219 62 94 0.0 0.0 0.00 0.00 0.00 45
20171022072014 62 94 0.0 0.0 0.00 0.00 0.00 45
20171022071212 62 94 0.0 0.0 0.00 0.00 0.00 45
20171022070808 62 94 0.0 0.0 0.00 0.00 0.00 45
20171022064758 62 94 0.0 0.0 0.00 0.00 0.00 45
20171022064358 61 94 0.0 0.0 0.00 0.00 0.00 44
20171022063955 62 94 0.0 0.0 0.00 0.00 0.00 43
20171022062458 62 94 0.0 0.0 0.00 0.00 0.00 44
20171022062349 62 94 0.0 0.0 0.00 0.00 0.00 44
20171022061142 62 94 0.0 0.0 0.00 0.00 0.00 43
20171022055535 63 70 1.0 3.0 0.00 0.00 0.00 43
20171022054733 63 101 1.0 0.0 0.00 0.00 0.00 44
20171022053125 63 75 0.0 0.0 0.00 0.00 0.00 43
20171022052322 63 75 0.0 0.0 0.00 0.00 0.00 43
20171022051518 63 75 0.0 0.0 0.00 0.00 0.00 43
20171022050714 63 75 0.0 0.0 0.00 0.00 0.00 43
20171022050314 64 75 0.0 0.0 0.00 0.00 0.00 43
20171022045510 64 75 0.0 0.0 0.00 0.00 0.00 43
20171022043501 64 80 2.0 2.0 0.00 0.00 0.00 41
20171022042657 65 80 0.0 2.0 0.00 0.00 0.00 41
20171022033032 72 43 3.0 6.0 0.00 0.00 0.00 34
20171022031827 68 52 1.0 2.0 0.00 0.00 0.00 41
20171022031424 68 61 1.0 1.0 0.00 0.00 0.00 41
20171022031023 68 299 0.0 3.0 0.00 0.00 0.00 41
20171022030219 68 53 0.0 0.0 0.00 0.00 0.00 41
20171022025416 69 53 0.0 0.0 0.00 0.00 0.00 41
20171022024210 72 53 0.0 6.0 0.00 0.00 0.00 41
20171022023808 72 53 0.0 6.0 0.00 0.00 0.00 41
20171022022602 71 50 4.0 7.0 0.00 0.00 0.00 42
20171022021758 69 33 0.0 3.0 0.00 0.00 0.00 47
20171022020150 67 36 4.0 3.0 0.00 0.00 0.00 54
20171022015749 68 28 0.0 2.0 0.00 0.00 0.00 56
20171022014544 67 74 0.0 0.0 0.00 0.00 0.00 56
20171022014142 67 74 0.0 0.0 0.00 0.00 0.00 56
20171022013740 67 74 0.0 3.0 0.00 0.00 0.00 56
20171022013339 68 74 0.0 3.0 0.00 0.00 0.00 56
20171022012047 69 277 0.0 0.0 0.00 0.00 0.00 53
20171022011142 72 277 0.0 0.0 0.00 0.00 0.00 50
20171022005934 73 277 0.0 0.0 0.00 0.00 0.00 48
20171022005633 73 277 0.0 0.0 0.00 0.00 0.00 48
20171022005029 73 277 0.0 0.0 0.00 0.00 0.00 47
20171022003819 75 277 0.0 0.0 0.00 0.00 0.00 46
20171022002913 76 220 2.0 2.0 0.00 0.00 0.00 45
20171022002609 76 240 0.0 1.0 0.00 0.00 0.00 45
20171022002307 76 240 0.0 5.0 0.00 0.00 0.00 45
20171022001703 77 264 3.0 5.0 0.00 0.00 0.00 45
20171022001059 77 272 0.0 6.0 0.00 0.00 0.00 44
20171022000757 78 237 5.0 4.0 0.00 0.00 0.00 44
20171022000455 77 175 2.0 4.0 0.00 0.00 0.00 44
20171021235245 77 237 1.0 4.0 0.00 0.00 0.00 44
20171021234942 77 194 2.0 4.0 0.00 0.00 0.00 44
20171021234126 77 146 2.0 4.0 0.00 0.00 0.00 44
20171021234036 77 146 2.0 4.0 0.00 0.00 0.00 44
20171021233732 77 279 3.0 5.0 0.00 0.00 0.00 45
20171021233500 79 139 0.0 8.0 0.00 0.00 0.00 46
20171021233428 79 139 0.0 8.0 0.00 0.00 0.00 46
20171021233357 77 188 4.0 8.0 0.00 0.00 0.00 45
20171021233323 79 139 0.0 8.0 0.00 0.00 0.00 46
20171021233250 77 188 4.0 8.0 0.00 0.00 0.00 45
20171021233217 77 188 4.0 8.0 0.00 0.00 0.00 45
20171021233143 79 139 0.0 8.0 0.00 0.00 0.00 46
20171021233109 79 139 0.0 8.0 0.00 0.00 0.00 46
20171021233033 77 188 4.0 8.0 0.00 0.00 0.00 45
20171021232958 77 188 4.0 8.0 0.00 0.00 0.00 45
20171021232923 77 188 4.0 8.0 0.00 0.00 0.00 45
20171021232847 79 139 0.0 8.0 0.00 0.00 0.00 46
20171021232810 79 139 0.0 8.0 0.00 0.00 0.00 46
20171021232739 79 139 0.0 8.0 0.00 0.00 0.00 46
20171021232707 77 188 4.0 8.0 0.00 0.00 0.00 45
20171021232630 77 188 4.0 8.0 0.00 0.00 0.00 45
20171021232552 77 188 4.0 8.0 0.00 0.00 0.00 45
20171021232522 77 216 5.0 8.0 0.00 0.00 0.00 45
20171021232511 77 188 4.0 8.0 0.00 0.00 0.00 45
20171021232439 79 139 0.0 8.0 0.00 0.00 0.00 46
20171021232409 77 188 4.0 8.0 0.00 0.00 0.00 45
20171021232338 77 188 4.0 8.0 0.00 0.00 0.00 45
20171021232306 79 139 0.0 8.0 0.00 0.00 0.00 46
20171021232230 79 139 0.0 8.0 0.00 0.00 0.00 46
20171021232220 77 188 4.0 8.0 0.00 0.00 0.00 45
20171021232153 79 139 0.0 8.0 0.00 0.00 0.00 46
20171021232112 79 139 0.0 8.0 0.00 0.00 0.00 46
20171021232032 79 139 0.0 8.0 0.00 0.00 0.00 46
20171021231949 79 139 0.0 8.0 0.00 0.00 0.00 46
20171021231905 79 139 0.0 8.0 0.00 0.00 0.00 46
20171021231820 79 139 0.0 8.0 0.00 0.00 0.00 46
20171021231733 79 139 0.0 8.0 0.00 0.00 0.00 46
20171021231644 79 139 0.0 8.0 0.00 0.00 0.00 46
20171021231554 79 139 0.0 8.0 0.00 0.00 0.00 46
20171021231500 79 139 0.0 8.0 0.00 0.00 0.00 46
20171021231407 79 139 0.0 8.0 0.00 0.00 0.00 46
20171021231240 79 139 0.0 8.0 0.00 0.00 0.00 46
20171021231140 79 139 0.0 8.0 0.00 0.00 0.00 46
20171021231108 79 139 0.0 8.0 0.00 0.00 0.00 46
20171021231036 79 139 0.0 8.0 0.00 0.00 0.00 46
20171021231005 79 139 0.0 8.0 0.00 0.00 0.00 46
20171021230933 79 139 0.0 8.0 0.00 0.00 0.00 46
20171021230901 79 139 0.0 8.0 0.00 0.00 0.00 46
20171021230829 79 139 0.0 8.0 0.00 0.00 0.00 46
20171021230758 79 139 0.0 8.0 0.00 0.00 0.00 46
20171021230724 79 139 0.0 8.0 0.00 0.00 0.00 46
20171021230651 79 139 0.0 8.0 0.00 0.00 0.00 46
20171021230618 79 139 0.0 8.0 0.00 0.00 0.00 46
20171021230544 79 139 0.0 8.0 0.00 0.00 0.00 46
20171021230509 79 139 0.0 8.0 0.00 0.00 0.00 46
20171021230432 79 139 0.0 8.0 0.00 0.00 0.00 46
20171021230356 79 139 0.0 8.0 0.00 0.00 0.00 46
20171021230319 79 139 0.0 8.0 0.00 0.00 0.00 46
20171021230241 79 139 0.0 8.0 0.00 0.00 0.00 46
20171021230203 79 139 0.0 8.0 0.00 0.00 0.00 46
20171021230123 79 139 0.0 8.0 0.00 0.00 0.00 46
20171021230043 79 139 0.0 8.0 0.00 0.00 0.00 46
20171021230003 79 139 0.0 8.0 0.00 0.00 0.00 46
20171021225923 79 139 0.0 8.0 0.00 0.00 0.00 46
20171021225842 79 139 0.0 8.0 0.00 0.00 0.00 46
20171021225801 79 139 0.0 8.0 0.00 0.00 0.00 46
20171021225717 79 139 0.0 8.0 0.00 0.00 0.00 46
20171021225634 79 139 0.0 8.0 0.00 0.00 0.00 46
20171021225551 79 139 0.0 8.0 0.00 0.00 0.00 46
20171021225507 79 139 0.0 8.0 0.00 0.00 0.00 46
20171021225503 79 206 3.0 9.0 0.00 0.00 0.00 46
20171021225420 79 139 0.0 8.0 0.00 0.00 0.00 46
20171021225334 79 139 0.0 8.0 0.00 0.00 0.00 46
20171021225247 79 139 0.0 8.0 0.00 0.00 0.00 46
20171021225200 79 139 0.0 8.0 0.00 0.00 0.00 46
20171021224554 79 250 6.0 8.0 0.00 0.00 0.00 45
20171021223951 80 327 1.0 7.0 0.00 0.00 0.00 45
20171021222229 80 281 6.0 8.0 0.00 0.00 0.00 45
20171021222139 80 281 6.0 8.0 0.00 0.00 0.00 45
20171021221836 79 239 3.0 8.0 0.00 0.00 0.00 45
20171021221608 78 272 4.0 4.0 0.00 0.00 0.00 45
20171021221533 78 272 4.0 4.0 0.00 0.00 0.00 45
20171021221006 78 144 2.0 5.0 0.00 0.00 0.00 45
20171021220929 78 144 2.0 5.0 0.00 0.00 0.00 45
20171021220626 78 165 0.0 7.0 0.00 0.00 0.00 45
20171021220324 78 257 4.0 7.0 0.00 0.00 0.00 45
20171021220055 78 333 1.0 9.0 0.00 0.00 0.00 46
20171021220021 78 333 1.0 9.0 0.00 0.00 0.00 46
20171021215720 79 201 0.0 9.0 0.00 0.00 0.00 46
20171021215116 78 274 5.0 12.0 0.00 0.00 0.00 47
20171021214929 77 97 3.0 8.0 0.00 0.00 0.00 47
20171021214814 77 97 3.0 8.0 0.00 0.00 0.00 47
20171021214623 77 296 0.0 8.0 0.00 0.00 0.00 47
20171021214512 77 296 0.0 8.0 0.00 0.00 0.00 47
20171021214247 77 122 3.0 8.0 0.00 0.00 0.00 46
20171021214208 77 122 3.0 8.0 0.00 0.00 0.00 46
20171021212958 77 288 2.0 9.0 0.00 0.00 0.00 45
20171021212355 78 210 4.0 9.0 0.00 0.00 0.00 45
20171021212055 77 167 4.0 10.0 0.00 0.00 0.00 46
20171021211751 77 265 2.0 11.0 0.00 0.00 0.00 46
20171021211447 78 241 4.0 11.0 0.00 0.00 0.00 46
20171021211224 78 136 2.0 11.0 0.00 0.00 0.00 45
20171021211145 78 136 2.0 11.0 0.00 0.00 0.00 45
20171021210843 77 255 8.0 11.0 0.00 0.00 0.00 45
20171021210637 77 151 1.0 6.0 0.00 0.00 0.00 46
20171021210539 77 151 1.0 6.0 0.00 0.00 0.00 46
20171021205933 77 36 0.0 9.0 0.00 0.00 0.00 48
20171021205752 77 113 3.0 10.0 0.00 0.00 0.00 47
20171021205630 77 113 3.0 10.0 0.00 0.00 0.00 47
20171021205023 76 251 4.0 9.0 0.00 0.00 0.00 47
20171021204840 77 277 1.0 5.0 0.00 0.00 0.00 46
20171021204721 77 277 1.0 5.0 0.00 0.00 0.00 46
20171021204419 77 291 0.0 5.0 0.00 0.00 0.00 46
20171021204118 77 116 2.0 9.0 0.00 0.00 0.00 46
20171021203814 76 298 3.0 5.0 0.00 0.00 0.00 46
20171021203512 76 222 0.0 5.0 0.00 0.00 0.00 46
20171021203211 76 305 4.0 4.0 0.00 0.00 0.00 47
20171021202910 76 272 1.0 4.0 0.00 0.00 0.00 47
20171021202305 76 333 0.0 7.0 0.00 0.00 0.00 49
20171021202002 75 288 5.0 7.0 0.00 0.00 0.00 49
20171021201735 75 217 1.0 2.0 0.00 0.00 0.00 49
20171021201700 75 217 1.0 2.0 0.00 0.00 0.00 49
20171021201447 75 315 2.0 2.0 0.00 0.00 0.00 49
20171021201358 75 315 2.0 2.0 0.00 0.00 0.00 49
20171021201056 74 50 2.0 5.0 0.00 0.00 0.00 49
20171021194942 74 187 1.0 7.0 0.00 0.00 0.00 49
20171021194636 74 191 2.0 9.0 0.00 0.00 0.00 50
20171021194334 74 150 0.0 9.0 0.00 0.00 0.00 51
20171021194033 73 322 6.0 6.0 0.00 0.00 0.00 51
20171021193731 73 334 0.0 6.0 0.00 0.00 0.00 52
20171021193430 73 167 4.0 6.0 0.00 0.00 0.00 52
20171021193126 74 278 3.0 10.0 0.00 0.00 0.00 53
20171021193104 73 233 3.0 6.0 0.00 0.00 0.00 51
20171021193019 73 233 3.0 6.0 0.00 0.00 0.00 51
20171021192933 73 233 3.0 6.0 0.00 0.00 0.00 51
20171021192846 73 233 3.0 6.0 0.00 0.00 0.00 51
20171021192823 74 109 0.0 10.0 0.00 0.00 0.00 53
20171021192759 73 233 3.0 6.0 0.00 0.00 0.00 51
20171021192709 73 233 3.0 6.0 0.00 0.00 0.00 51
20171021192618 73 233 3.0 6.0 0.00 0.00 0.00 51
20171021192527 73 233 3.0 6.0 0.00 0.00 0.00 51
20171021192521 73 336 4.0 8.0 0.00 0.00 0.00 53
20171021192434 73 233 3.0 6.0 0.00 0.00 0.00 51
20171021192341 73 233 3.0 6.0 0.00 0.00 0.00 51
20171021192245 73 233 3.0 6.0 0.00 0.00 0.00 51
20171021192218 73 253 3.0 3.0 0.00 0.00 0.00 52
20171021192148 73 233 3.0 6.0 0.00 0.00 0.00 51
20171021192048 73 233 3.0 6.0 0.00 0.00 0.00 51
20171021191947 73 233 3.0 6.0 0.00 0.00 0.00 51
20171021191917 73 278 5.0 3.0 0.00 0.00 0.00 51
20171021191845 73 233 3.0 6.0 0.00 0.00 0.00 51
20171021191740 73 233 3.0 6.0 0.00 0.00 0.00 51
20171021191635 73 233 3.0 6.0 0.00 0.00 0.00 51
20171021191616 73 0 0.0 8.0 0.00 0.00 0.00 51
20171021191526 73 233 3.0 6.0 0.00 0.00 0.00 51
20171021191416 73 233 3.0 6.0 0.00 0.00 0.00 51
20171021191311 73 264 0.0 6.0 0.00 0.00 0.00 50
20171021191306 73 233 3.0 6.0 0.00 0.00 0.00 51
20171021191154 73 233 3.0 6.0 0.00 0.00 0.00 51
20171021191052 73 233 3.0 6.0 0.00 0.00 0.00 51
20171021191009 73 233 3.0 6.0 0.00 0.00 0.00 51
20171021190708 72 298 2.0 7.0 0.00 0.00 0.00 50
20171021190406 72 199 0.0 7.0 0.00 0.00 0.00 52
20171021190104 72 251 5.0 6.0 0.00 0.00 0.00 53
20171021185801 71 299 1.0 8.0 0.00 0.00 0.00 55
20171021185604 71 201 3.0 8.0 0.00 0.00 0.00 54
20171021185459 71 201 3.0 8.0 0.00 0.00 0.00 54
20171021185155 72 341 1.0 7.0 0.00 0.00 0.00 55
20171021184853 72 298 6.0 7.0 0.00 0.00 0.00 55
20171021184553 71 313 5.0 9.0 0.00 0.00 0.00 56
20171021184249 71 264 3.0 6.0 0.00 0.00 0.00 55
20171021183946 70 289 1.0 6.0 0.00 0.00 0.00 57
20171021183643 70 267 0.0 9.0 0.00 0.00 0.00 57
20171021183433 70 293 2.0 9.0 0.00 0.00 0.00 58
20171021183342 70 293 2.0 9.0 0.00 0.00 0.00 58
20171021183042 69 333 0.0 5.0 0.00 0.00 0.00 58
20171021182736 69 268 2.0 7.0 0.00 0.00 0.00 60
20171021182434 69 286 3.0 7.0 0.00 0.00 0.00 62
20171021182223 69 281 0.0 7.0 0.00 0.00 0.00 62
20171021182132 69 281 0.0 7.0 0.00 0.00 0.00 62
20171021181910 69 255 6.0 7.0 0.00 0.00 0.00 62
20171021181829 69 255 6.0 7.0 0.00 0.00 0.00 62
20171021181526 69 253 0.0 10.0 0.00 0.00 0.00 63
20171021181224 69 296 4.0 10.0 0.00 0.00 0.00 63
20171021180920 69 278 5.0 10.0 0.00 0.00 0.00 65
20171021180618 69 147 2.0 9.0 0.00 0.00 0.00 66
20171021180317 68 320 6.0 7.0 0.00 0.00 0.00 67
20171021180014 68 194 6.0 7.0 0.00 0.00 0.00 67
20171021175710 69 175 0.0 9.0 0.00 0.00 0.00 68
20171021175407 69 272 4.0 9.0 0.00 0.00 0.00 69
20171021174801 68 324 2.0 7.0 0.00 0.00 0.00 71
20171021174459 68 109 0.0 7.0 0.00 0.00 0.00 71
20171021174157 68 258 7.0 7.0 0.00 0.00 0.00 71
20171021174143 67 175 3.0 7.0 0.00 0.00 0.00 73
20171021174010 67 175 3.0 7.0 0.00 0.00 0.00 73
20171021173852 67 175 3.0 7.0 0.00 0.00 0.00 73
20171021173247 67 98 3.0 7.0 0.00 0.00 0.00 74
20171021172955 66 182 2.0 5.0 0.00 0.00 0.00 74
20171021172944 67 233 2.0 7.0 0.00 0.00 0.00 74
20171021172722 66 182 2.0 5.0 0.00 0.00 0.00 74
20171021172640 66 182 2.0 5.0 0.00 0.00 0.00 74
20171021172338 66 216 4.0 5.0 0.00 0.00 0.00 75
20171021172035 66 329 0.0 6.0 0.00 0.00 0.00 77
20171021171733 66 313 3.0 6.0 0.00 0.00 0.00 77
20171021171713 66 240 2.0 6.0 0.00 0.00 0.00 77
20171021171502 66 240 2.0 6.0 0.00 0.00 0.00 77
20171021171429 66 240 2.0 6.0 0.00 0.00 0.00 77
20171021170825 65 208 4.0 8.0 0.00 0.00 0.00 76
20171021170730 66 171 2.0 6.0 0.00 0.00 0.00 77
20171021170614 66 171 2.0 6.0 0.00 0.00 0.00 77
20171021170521 66 171 2.0 6.0 0.00 0.00 0.00 77
20171021170218 67 279 3.0 6.0 0.00 0.00 0.00 78
20171021165920 66 167 1.0 5.0 0.00 0.00 0.00 79
20171021165915 66 226 6.0 6.0 0.00 0.00 0.00 78
20171021165655 66 167 1.0 5.0 0.00 0.00 0.00 79
20171021165612 66 167 1.0 5.0 0.00 0.00 0.00 79
20171021165311 65 299 2.0 5.0 0.00 0.00 0.00 81
20171021165238 65 306 0.0 5.0 0.00 0.00 0.00 82
20171021165039 65 306 0.0 5.0 0.00 0.00 0.00 82
20171021165006 65 306 0.0 5.0 0.00 0.00 0.00 82
20171021164708 65 279 0.0 5.0 0.00 0.00 0.00 82
20171021164648 65 241 3.0 5.0 0.00 0.00 0.00 81
20171021164433 65 241 3.0 5.0 0.00 0.00 0.00 81
20171021164400 65 241 3.0 5.0 0.00 0.00 0.00 81
20171021164202 65 123 2.0 3.0 0.00 0.00 0.00 83
20171021164058 65 149 3.0 4.0 0.00 0.00 0.00 82
20171021163855 65 123 2.0 3.0 0.00 0.00 0.00 83
20171021163755 65 123 2.0 3.0 0.00 0.00 0.00 83
20171021163452 64 312 0.0 3.0 0.00 0.00 0.00 85
20171021163150 64 312 1.0 0.0 0.00 0.00 0.00 87
20171021162848 63 291 0.0 0.0 0.00 0.00 0.00 89
20171021162622 63 272 0.0 3.0 0.00 0.00 0.00 91
20171021162543 63 272 0.0 0.0 0.00 0.00 0.00 89
20171021162342 63 272 0.0 3.0 0.00 0.00 0.00 91
20171021162241 62 272 0.0 3.0 0.00 0.00 0.00 92
20171021162051 62 272 0.0 3.0 0.00 0.00 0.00 92
20171021161938 62 272 0.0 3.0 0.00 0.00 0.00 92
20171021161332 61 295 1.0 3.0 0.00 0.00 0.00 94
20171021161030 60 151 0.0 3.0 0.00 0.00 0.00 95
20171021160726 60 219 2.0 2.0 0.00 0.00 0.00 95
20171021160715 60 232 1.0 2.0 0.00 0.00 0.00 95
20171021160520 60 232 1.0 2.0 0.00 0.00 0.00 95
20171021160424 60 232 1.0 2.0 0.00 0.00 0.00 95
20171021160120 60 277 0.0 3.0 0.00 0.00 0.00 95
20171021155818 61 295 2.0 3.0 0.00 0.00 0.00 95
20171021155814 60 284 3.0 3.0 0.00 0.00 0.00 95
20171021155610 60 284 3.0 3.0 0.00 0.00 0.00 95
20171021155515 60 284 3.0 3.0 0.00 0.00 0.00 95
20171021154909 60 302 2.0 5.0 0.00 0.00 0.00 95
20171021154618 59 303 2.0 3.0 0.00 0.00 0.00 96
20171021154409 59 303 2.0 3.0 0.00 0.00 0.00 96
20171021154304 59 303 2.0 3.0 0.00 0.00 0.00 96
20171021154001 59 330 1.0 3.0 0.00 0.00 0.00 98
20171021153355 58 313 2.0 2.0 0.00 0.00 0.00 99
20171021152750 56 75 0.0 2.0 0.00 0.00 0.00 99
20171021152448 56 75 0.0 2.0 0.00 0.00 0.00 99
20171021152144 55 71 1.0 1.0 0.00 0.00 0.00 99
20171021151505 54 66 1.0 3.0 0.00 0.00 0.00 99
20171021151347 54 66 1.0 3.0 0.00 0.00 0.00 99
20171021151236 54 66 1.0 3.0 0.00 0.00 0.00 99
20171021150933 54 77 1.0 3.0 0.00 0.00 0.00 99
20171021150024 53 54 0.0 0.0 0.00 0.00 0.00 99
20171021145856 53 54 0.0 0.0 0.00 0.00 0.00 99
20171021145721 53 54 0.0 0.0 0.00 0.00 0.00 99
20171021145518 53 54 0.0 0.0 0.00 0.00 0.00 99
20171021145418 53 54 0.0 0.0 0.00 0.00 0.00 99
20171021145151 53 54 0.0 0.0 0.00 0.00 0.00 99
20171021145115 53 54 0.0 0.0 0.00 0.00 0.00 99
20171021144900 53 54 0.0 0.0 0.00 0.00 0.00 99
20171021144812 53 54 0.0 0.0 0.00 0.00 0.00 99
20171021144800 52 54 0.0 0.0 0.00 0.00 0.00 99
20171021144603 52 54 0.0 0.0 0.00 0.00 0.00 99
20171021144510 52 54 0.0 0.0 0.00 0.00 0.00 99
20171021144208 53 54 0.0 0.0 0.00 0.00 0.00 99
20171021143905 53 54 0.0 0.0 0.00 0.00 0.00 99
20171021143602 53 54 0.0 0.0 0.00 0.00 0.00 99
20171021143259 53 54 0.0 0.0 0.00 0.00 0.00 99
20171021142957 52 54 0.0 0.0 0.00 0.00 0.00 99
20171021142801 52 54 0.0 0.0 0.00 0.00 0.00 99
20171021142654 52 54 0.0 0.0 0.00 0.00 0.00 99
20171021142652 52 54 0.0 0.0 0.00 0.00 0.00 99
20171021142331 52 54 0.0 0.0 0.00 0.00 0.00 99
20171021142047 52 54 0.0 0.0 0.00 0.00 0.00 99
20171021142019 52 54 0.0 2.0 0.00 0.00 0.00 99
20171021141817 52 54 0.0 2.0 0.00 0.00 0.00 99
20171021141744 52 54 0.0 2.0 0.00 0.00 0.00 99
20171021141557 52 54 0.0 2.0 0.00 0.00 0.00 99
20171021141441 52 54 0.0 2.0 0.00 0.00 0.00 99
20171021141429 52 54 0.0 3.0 0.00 0.00 0.00 99
20171021141138 52 54 0.0 3.0 0.00 0.00 0.00 99
20171021140532 52 68 0.0 2.0 0.00 0.00 0.00 99
20171021140249 53 67 2.0 2.0 0.00 0.00 0.00 99
20171021140230 52 91 0.0 2.0 0.00 0.00 0.00 99
20171021140006 53 67 2.0 2.0 0.00 0.00 0.00 99
20171021135926 53 67 2.0 2.0 0.00 0.00 0.00 99
20171021135624 52 108 1.0 4.0 0.00 0.00 0.00 99
20171021135321 53 70 1.0 4.0 0.00 0.00 0.00 99
20171021135151 53 90 3.0 3.0 0.00 0.00 0.00 100
20171021134824 53 90 3.0 3.0 0.00 0.00 0.00 100
20171021134738 53 90 3.0 3.0 0.00 0.00 0.00 100
20171021134647 53 35 1.0 3.0 0.00 0.00 0.00 99
20171021134431 53 35 1.0 3.0 0.00 0.00 0.00 99
20171021134336 53 35 1.0 3.0 0.00 0.00 0.00 99
20171021134324 53 85 3.0 0.0 0.00 0.00 0.00 98
20171021134013 53 85 3.0 0.0 0.00 0.00 0.00 98
20171021133934 53 85 3.0 0.0 0.00 0.00 0.00 98
20171021133532 54 43 0.0 1.0 0.00 0.00 0.00 99
20171021133130 54 43 0.0 3.0 0.00 0.00 0.00 99
20171021132732 54 77 1.0 5.0 0.00 0.00 0.00 99
20171021132327 54 39 3.0 5.0 0.00 0.00 0.00 99
20171021131925 54 9 5.0 4.0 0.00 0.00 0.00 99
20171021131523 53 291 2.0 4.0 0.00 0.00 0.00 99
20171021131125 52 288 2.0 3.0 0.00 0.00 0.00 99
20171021131115 53 57 0.0 4.0 0.00 0.00 0.00 99
20171021130720 53 57 0.0 4.0 0.00 0.00 0.00 99
20171021130706 53 73 3.0 0.0 0.00 0.00 0.00 99
20171021130358 53 73 3.0 0.0 0.00 0.00 0.00 99
20171021130318 53 73 3.0 0.0 0.00 0.00 0.00 99
20171021125916 52 109 3.0 0.0 0.00 0.00 0.00 99
20171021125828 52 42 0.0 0.0 0.00 0.00 0.00 98
20171021125553 52 42 0.0 0.0 0.00 0.00 0.00 98
20171021125515 52 42 0.0 0.0 0.00 0.00 0.00 98
20171021125142 52 42 0.0 1.0 0.00 0.00 0.00 98
20171021125112 52 42 0.0 0.0 0.00 0.00 0.00 98
20171021124846 52 42 0.0 1.0 0.00 0.00 0.00 98
20171021124711 52 42 0.0 1.0 0.00 0.00 0.00 98
20171021124310 52 42 0.0 3.0 0.00 0.00 0.00 98
20171021123909 52 64 0.0 3.0 0.00 0.00 0.00 98
20171021123814 53 125 3.0 2.0 0.00 0.00 0.00 98
20171021123543 53 125 3.0 2.0 0.00 0.00 0.00 98
20171021123505 53 125 3.0 2.0 0.00 0.00 0.00 98
20171021123106 53 25 0.0 4.0 0.00 0.00 0.00 98
20171021122705 53 33 0.0 0.0 0.00 0.00 0.00 98
20171021122301 53 25 0.0 2.0 0.00 0.00 0.00 98
20171021121833 52 52 0.0 3.0 0.00 0.00 0.00 97
20171021121553 52 52 0.0 3.0 0.00 0.00 0.00 97
20171021121457 52 52 0.0 3.0 0.00 0.00 0.00 97
20171021121055 53 75 1.0 4.0 0.00 0.00 0.00 97
20171021120655 53 286 0.0 4.0 0.00 0.00 0.00 97
20171021120355 53 106 0.0 0.0 0.00 0.00 0.00 97
20171021120251 53 307 2.0 0.0 0.00 0.00 0.00 97